Time;durP1;ratioP1;P1;durP2;ratioP2;P2;SDS_P1;SDS_P2;PMS_P1;PMS_P2;Temp;Humidity;BMP_temperature;BMP_pressure;BME280_temperature;BME280_humidity;BME280_pressure;Samples;Min_cycle;Max_cycle;Signal;HPM_P1;HPM_P2
2022/01/25 00:28:23;;;;;;;6.93;4.18;;;6.80;61.70;;;;;;4992769;28;20035;-69
2022/01/25 00:33:28;;;;;;;7.22;3.50;;;6.70;62.00;;;;;;4992598;28;20022;-69
2022/01/25 00:35:54;;;;;;;9.43;4.25;;;6.70;62.20;;;;;;4992635;28;20036;-70
2022/01/25 00:38:20;;;;;;;9.18;5.55;;;6.70;62.00;;;;;;4992525;28;20074;-72
2022/01/25 00:40:46;;;;;;;7.88;4.13;;;6.70;62.70;;;;;;4992355;28;20427;-70
2022/01/25 00:43:12;;;;;;;7.28;4.28;;;6.70;62.40;;;;;;4992629;28;20045;-71
2022/01/25 00:45:37;;;;;;;9.57;4.30;;;6.70;62.60;;;;;;4994962;28;20033;-69
2022/01/25 00:48:06;;;;;;;7.05;3.85;;;6.70;62.20;;;;;;4995840;28;20494;-71
2022/01/25 00:50:38;;;;;;;6.90;4.03;;;6.70;62.30;;;;;;4996102;28;20072;-69
2022/01/25 00:55:31;;;;;;;7.72;4.55;;;6.70;62.50;;;;;;5000111;28;20041;-69
2022/01/25 00:57:58;;;;;;;7.40;4.40;;;6.70;62.70;;;;;;5003007;28;20022;-70
2022/01/25 01:00:24;;;;;;;6.82;4.07;;;6.70;62.70;;;;;;4998765;28;20495;-75
2022/01/25 01:02:50;;;;;;;10.02;4.60;;;6.70;62.70;;;;;;4996130;28;20399;-70
2022/01/25 01:05:16;;;;;;;8.18;4.30;;;6.70;62.60;;;;;;4995707;28;20038;-69
2022/01/25 01:07:42;;;;;;;8.73;4.45;;;6.60;62.60;;;;;;4995561;28;20045;-70
2022/01/25 01:10:12;;;;;;;7.75;4.30;;;6.60;62.90;;;;;;5027139;28;20045;-72
2022/01/25 01:44:38;;;;;;;5.70;3.47;;;6.50;63.50;;;;;;4994882;28;20275;-74
2022/01/25 01:47:08;;;;;;;8.27;4.13;;;6.40;62.60;;;;;;4995026;28;20494;-74
2022/01/25 01:49:41;;;;;;;6.50;3.38;;;6.40;62.60;;;;;;4994757;28;20065;-72
2022/01/25 01:52:07;;;;;;;6.30;3.58;;;6.30;62.40;;;;;;4995192;28;20037;-71
2022/01/25 01:54:34;;;;;;;7.10;3.85;;;6.30;62.00;;;;;;4995151;28;20053;-74
2022/01/25 01:56:59;;;;;;;9.10;4.90;;;6.20;62.30;;;;;;4992546;28;20023;-74
2022/01/25 01:59:27;;;;;;;7.85;3.80;;;6.20;62.20;;;;;;5026232;28;20037;-73
2022/01/25 02:01:53;;;;;;;7.60;3.42;;;6.20;62.10;;;;;;4994727;28;20034;-74
2022/01/25 02:04:19;;;;;;;5.63;3.63;;;6.20;62.70;;;;;;4994854;28;20097;-75
2022/01/25 02:06:45;;;;;;;6.53;3.55;;;6.20;62.10;;;;;;4994745;28;20118;-74
2022/01/25 02:09:13;;;;;;;7.15;3.38;;;6.20;61.80;;;;;;4994458;28;20031;-75
2022/01/25 02:11:39;;;;;;;7.15;3.70;;;6.20;61.80;;;;;;4994588;28;20057;-72
2022/01/25 02:14:08;;;;;;;6.80;3.30;;;6.20;61.60;;;;;;4994657;28;20118;-76
2022/01/25 02:24:44;;;;;;;6.75;3.13;;;6.20;61.20;;;;;;4994641;28;20534;-75
2022/01/25 02:27:11;;;;;;;6.68;3.60;;;6.20;61.60;;;;;;4994555;28;20034;-77
2022/01/25 02:29:38;;;;;;;6.13;3.63;;;6.10;61.30;;;;;;4994284;28;20072;-76
2022/01/25 02:32:06;;;;;;;7.05;3.63;;;6.10;61.40;;;;;;4994277;28;20033;-74
2022/01/25 02:34:32;;;;;;;7.05;3.90;;;6.10;61.20;;;;;;4994516;28;20404;-76
2022/01/25 02:37:04;;;;;;;6.93;3.67;;;6.10;61.20;;;;;;4993119;28;20411;-76
2022/01/25 02:39:31;;;;;;;6.30;3.35;;;6.10;61.10;;;;;;4993765;28;20440;-75
2022/01/25 02:41:57;;;;;;;6.80;3.65;;;6.10;61.20;;;;;;4994074;28;20030;-75
2022/01/25 02:44:25;;;;;;;7.15;3.90;;;6.00;61.30;;;;;;4993841;28;20056;-72
2022/01/25 02:49:29;;;;;;;6.60;3.70;;;5.90;61.10;;;;;;4994032;28;20491;-70
2022/01/25 02:51:55;;;;;;;5.88;3.40;;;6.00;61.50;;;;;;4993687;28;20088;-69
2022/01/25 02:54:21;;;;;;;6.68;3.53;;;5.90;61.10;;;;;;4993836;28;20460;-68
2022/01/25 02:56:47;;;;;;;8.18;4.10;;;6.00;61.30;;;;;;4993674;28;20085;-69
2022/01/25 02:59:16;;;;;;;6.95;3.50;;;6.00;61.20;;;;;;4993606;28;20072;-71
2022/01/25 03:01:45;;;;;;;7.07;3.53;;;6.00;61.30;;;;;;4993365;28;20050;-70
2022/01/25 03:04:12;;;;;;;6.10;2.92;;;5.90;61.10;;;;;;4993503;28;20030;-70
2022/01/25 03:06:39;;;;;;;5.07;3.17;;;5.90;61.00;;;;;;4993424;28;20030;-70
2022/01/25 03:09:05;;;;;;;7.00;3.20;;;5.90;60.70;;;;;;4992980;28;20401;-71
2022/01/25 03:11:31;;;;;;;6.20;2.70;;;5.90;60.70;;;;;;4993305;28;20037;-71
2022/01/25 03:14:00;;;;;;;6.15;2.90;;;5.90;60.40;;;;;;4993616;28;20038;-69
2022/01/25 03:16:37;;;;;;;5.57;2.90;;;5.90;60.30;;;;;;4993937;28;20045;-70
2022/01/25 03:19:41;;;;;;;5.72;2.70;;;5.90;59.70;;;;;;4993305;28;20027;-72
2022/01/25 03:21:52;;;;;;;7.88;3.05;;;5.80;59.40;;;;;;4993164;28;20495;-70
2022/01/25 03:24:18;;;;;;;4.63;2.50;;;5.90;59.60;;;;;;4993219;28;20026;-68
2022/01/25 03:26:44;;;;;;;6.43;2.50;;;5.90;59.20;;;;;;4993315;28;20029;-70
2022/01/25 03:29:10;;;;;;;6.72;2.65;;;5.80;59.30;;;;;;4993123;28;20504;-70
2022/01/25 03:31:36;;;;;;;4.57;2.25;;;5.90;58.60;;;;;;4993022;28;20026;-69
2022/01/25 03:34:02;;;;;;;5.25;2.70;;;5.80;58.60;;;;;;4992950;28;20037;-69
2022/01/25 03:36:28;;;;;;;5.35;2.33;;;5.80;57.80;;;;;;4993206;28;20022;-68
2022/01/25 03:38:54;;;;;;;3.95;2.38;;;5.80;57.50;;;;;;4993061;28;20129;-69
2022/01/25 03:41:20;;;;;;;4.97;2.58;;;5.80;57.60;;;;;;4993020;28;20038;-69
2022/01/25 03:43:52;;;;;;;9.20;2.72;;;5.80;56.90;;;;;;4992976;28;20108;-69
2022/01/25 03:46:29;;;;;;;6.47;2.20;;;5.80;57.00;;;;;;4992826;28;20122;-69
2022/01/25 03:51:41;;;;;;;4.55;2.28;;;5.70;56.80;;;;;;4992908;28;20132;-69
2022/01/25 03:54:07;;;;;;;5.10;2.20;;;5.70;56.70;;;;;;4992963;28;20408;-71
2022/01/25 03:56:33;;;;;;;4.97;2.20;;;5.70;56.60;;;;;;4993044;28;20033;-71
2022/01/25 03:58:59;;;;;;;4.40;2.15;;;5.70;56.10;;;;;;4992770;28;20104;-70
2022/01/25 04:01:25;;;;;;;4.82;2.10;;;5.70;56.20;;;;;;4992811;28;20495;-69
2022/01/25 04:04:04;;;;;;;6.32;2.15;;;5.70;56.00;;;;;;4994415;28;20027;-69
2022/01/25 04:06:32;;;;;;;6.03;2.40;;;5.70;55.90;;;;;;4994889;28;20109;-69
2022/01/25 04:09:05;;;;;;;5.28;2.30;;;5.70;55.20;;;;;;4993844;28;20033;-70
2022/01/25 04:11:30;;;;;;;5.35;2.20;;;5.80;55.30;;;;;;4992749;28;20018;-69
2022/01/25 04:13:57;;;;;;;5.60;2.20;;;5.80;55.00;;;;;;4991455;28;20049;-69
2022/01/25 04:16:32;;;;;;;6.00;2.30;;;5.80;55.20;;;;;;4993108;28;20045;-68
2022/01/25 04:26:49;;;;;;;5.50;2.00;;;5.80;55.20;;;;;;4997285;28;20096;-72
2022/01/25 04:29:15;;;;;;;6.97;2.38;;;5.80;55.10;;;;;;4997111;28;20434;-75
2022/01/25 04:31:42;;;;;;;5.82;2.10;;;5.80;55.00;;;;;;4997077;28;20072;-76
2022/01/25 04:50:14;;;;;;;5.43;2.63;;;5.60;56.30;;;;;;4996569;28;20082;-76
2022/01/25 04:52:52;;;;;;;5.88;2.53;;;5.60;56.00;;;;;;4996448;28;20056;-75
2022/01/25 04:55:29;;;;;;;4.90;2.72;;;5.60;55.90;;;;;;4997063;28;20061;-76
2022/01/25 04:58:05;;;;;;;5.65;2.83;;;5.50;55.90;;;;;;4996506;28;20049;-75
2022/01/25 05:00:32;;;;;;;6.70;3.05;;;5.60;56.30;;;;;;4996558;28;20034;-74
2022/01/25 05:03:09;;;;;;;6.95;2.65;;;5.60;56.10;;;;;;4996668;28;20018;-75
2022/01/25 05:05:40;;;;;;;6.00;2.90;;;5.60;56.10;;;;;;4996394;28;20089;-75
2022/01/25 05:08:31;;;;;;;4.60;2.78;;;5.60;56.00;;;;;;4996127;28;20534;-74
2022/01/25 05:16:15;;;;;;;7.03;2.70;;;5.60;55.90;;;;;;4996201;28;20128;-74
2022/01/25 05:18:46;;;;;;;6.30;3.33;;;5.50;55.70;;;;;;4995778;28;20025;-73
2022/01/25 05:23:57;;;;;;;7.07;3.10;;;5.50;55.50;;;;;;4996007;28;20116;-71
2022/01/25 05:26:25;;;;;;;6.65;3.00;;;5.60;55.30;;;;;;4995684;28;20471;-70
2022/01/25 05:28:50;;;;;;;6.97;2.90;;;5.60;55.10;;;;;;4995602;28;20033;-75
2022/01/25 05:31:16;;;;;;;7.10;2.85;;;5.60;55.10;;;;;;4994414;28;20034;-76
2022/01/25 05:33:42;;;;;;;8.07;3.10;;;5.50;55.00;;;;;;5027170;28;20034;-73
2022/01/25 05:36:08;;;;;;;7.05;3.10;;;5.50;55.30;;;;;;4995898;28;20036;-77
2022/01/25 05:38:34;;;;;;;7.60;3.10;;;5.50;55.10;;;;;;4995806;28;20508;-74
2022/01/25 05:41:02;;;;;;;8.15;3.40;;;5.50;55.20;;;;;;4995702;28;20045;-75
2022/01/25 05:48:28;;;;;;;7.10;3.20;;;5.50;55.30;;;;;;4995914;28;20050;-77
2022/01/25 05:50:54;;;;;;;8.00;3.15;;;5.50;55.10;;;;;;4995460;28;20042;-77
2022/01/25 05:53:21;;;;;;;6.28;3.22;;;5.50;55.00;;;;;;4995304;28;20037;-74
2022/01/25 05:55:46;;;;;;;7.72;3.47;;;5.50;55.00;;;;;;4995205;28;20022;-73
2022/01/25 05:58:12;;;;;;;10.95;3.55;;;5.50;55.30;;;;;;4994568;28;20437;-75
2022/01/25 06:00:38;;;;;;;11.23;4.10;;;5.50;55.20;;;;;;5001117;28;20033;-70
2022/01/25 06:03:06;;;;;;;7.50;3.58;;;5.50;55.10;;;;;;5014913;28;20022;-76
2022/01/25 06:05:32;;;;;;;9.15;3.40;;;5.50;54.90;;;;;;5014622;28;20034;-73
2022/01/25 06:07:58;;;;;;;7.40;3.42;;;5.50;54.90;;;;;;5014329;28;20022;-74
2022/01/25 06:10:24;;;;;;;8.43;3.22;;;5.50;54.90;;;;;;5014475;28;20092;-69
2022/01/25 06:12:50;;;;;;;8.77;3.35;;;5.50;54.90;;;;;;5014417;28;20018;-75
2022/01/25 06:15:16;;;;;;;13.60;4.22;;;5.50;54.30;;;;;;5014678;28;20030;-72
2022/01/25 06:17:45;;;;;;;6.43;2.95;;;5.50;54.10;;;;;;5013269;28;20120;-72
2022/01/25 06:20:12;;;;;;;5.60;2.88;;;5.50;53.80;;;;;;5014500;28;20479;-69
2022/01/25 06:22:39;;;;;;;12.18;2.70;;;5.50;54.30;;;;;;5011184;28;20027;-70
2022/01/25 06:25:05;;;;;;;6.50;2.92;;;5.50;54.00;;;;;;4995427;28;20027;-72
2022/01/25 06:27:33;;;;;;;6.15;2.90;;;5.50;54.20;;;;;;4994788;28;20030;-70
2022/01/25 06:29:59;;;;;;;10.77;2.95;;;5.60;54.00;;;;;;4994374;28;20034;-72
2022/01/25 06:32:25;;;;;;;5.45;2.70;;;5.60;53.30;;;;;;4994595;28;20027;-74
2022/01/25 06:34:50;;;;;;;5.00;2.55;;;5.60;53.00;;;;;;4994534;28;20033;-70
2022/01/25 06:37:16;;;;;;;5.43;2.90;;;5.60;53.10;;;;;;4994431;28;20018;-69
2022/01/25 06:39:42;;;;;;;6.22;2.70;;;5.70;52.70;;;;;;5028744;28;20427;-70
2022/01/25 06:42:09;;;;;;;7.88;2.92;;;5.70;52.40;;;;;;5013605;28;20034;-70
2022/01/25 06:44:37;;;;;;;8.65;2.83;;;5.80;53.30;;;;;;5013819;28;20022;-70
2022/01/25 06:47:05;;;;;;;5.25;2.47;;;5.70;51.80;;;;;;5015905;28;20030;-79
2022/01/25 06:49:31;;;;;;;6.43;3.33;;;5.70;52.30;;;;;;5014908;28;20046;-76
2022/01/25 06:51:59;;;;;;;8.00;4.15;;;5.80;52.40;;;;;;5014474;28;20479;-68
2022/01/25 06:54:25;;;;;;;13.85;4.10;;;5.80;54.00;;;;;;5013863;28;20038;-70
2022/01/25 06:56:51;;;;;;;8.57;3.33;;;5.90;53.60;;;;;;5014335;28;20026;-72
2022/01/25 06:59:18;;;;;;;11.45;3.30;;;6.00;52.90;;;;;;5013873;28;20057;-71
2022/01/25 07:01:44;;;;;;;9.60;3.47;;;6.00;53.40;;;;;;5014072;28;20076;-71
2022/01/25 07:04:12;;;;;;;6.30;3.20;;;6.00;52.40;;;;;;4994855;28;20038;-77
2022/01/25 07:06:38;;;;;;;8.13;3.65;;;6.00;53.50;;;;;;4996103;28;20479;-73
2022/01/25 07:09:04;;;;;;;6.78;3.42;;;6.10;52.70;;;;;;5029647;28;20135;-71
2022/01/25 07:11:30;;;;;;;8.32;3.58;;;6.20;52.30;;;;;;4997546;28;20464;-68
2022/01/25 07:13:57;;;;;;;9.05;4.47;;;6.20;52.30;;;;;;5027947;28;20039;-68
2022/01/25 07:16:24;;;;;;;12.18;3.83;;;6.40;53.00;;;;;;5026891;28;20022;-69
2022/01/25 07:18:50;;;;;;;9.00;3.33;;;6.40;51.60;;;;;;4994035;28;20526;-77
2022/01/25 07:21:16;;;;;;;9.90;3.28;;;6.50;51.50;;;;;;4995465;28;20030;-69
2022/01/25 07:23:41;;;;;;;10.48;3.47;;;6.60;51.60;;;;;;4993421;28;20049;-68
2022/01/25 07:26:07;;;;;;;7.70;3.63;;;6.60;51.10;;;;;;4995096;28;20452;-70
2022/01/25 07:28:38;;;;;;;11.88;5.05;;;6.60;50.90;;;;;;4997057;28;20061;-71
2022/01/25 07:31:04;;;;;;;9.45;2.83;;;6.80;51.40;;;;;;4993802;28;20058;-77
2022/01/25 07:33:30;;;;;;;7.18;2.80;;;6.80;50.30;;;;;;4994211;28;20026;-77
2022/01/25 07:35:59;;;;;;;8.18;3.20;;;6.90;50.40;;;;;;4993901;28;20035;-75
2022/01/25 07:38:24;;;;;;;6.68;2.97;;;6.80;50.20;;;;;;4993951;28;20033;-79
2022/01/25 07:40:50;;;;;;;7.75;2.85;;;6.80;50.00;;;;;;4994661;28;20046;-77
2022/01/25 07:43:16;;;;;;;7.13;2.90;;;6.90;50.50;;;;;;5026176;28;20113;-76
2022/01/25 07:45:49;;;;;;;8.80;3.30;;;6.90;50.30;;;;;;4996919;28;20041;-83
2022/01/25 07:48:15;;;;;;;8.13;3.22;;;7.00;50.80;;;;;;5023939;28;20043;-81
2022/01/25 07:50:41;;;;;;;8.55;3.78;;;7.00;49.80;;;;;;4994876;28;20077;-74
2022/01/25 07:53:07;;;;;;;12.70;3.38;;;7.00;50.10;;;;;;5024530;28;20073;-78
2022/01/25 07:55:33;;;;;;;6.32;3.35;;;7.00;50.10;;;;;;4996104;28;20034;-79
2022/01/25 07:57:59;;;;;;;9.07;3.78;;;7.00;49.80;;;;;;4997336;28;20037;-80
2022/01/25 08:00:24;;;;;;;8.00;3.72;;;7.00;50.00;;;;;;4997354;28;20448;-74
2022/01/25 08:02:51;;;;;;;9.55;3.97;;;7.10;50.40;;;;;;5028864;28;20543;-78
2022/01/25 08:05:19;;;;;;;9.73;3.70;;;7.10;50.10;;;;;;4999599;28;20053;-78
2022/01/25 08:07:45;;;;;;;7.07;3.90;;;7.20;50.20;;;;;;4998223;28;20026;-71
2022/01/25 08:10:12;;;;;;;11.20;4.00;;;7.20;50.00;;;;;;4997668;28;20029;-71
2022/01/25 08:12:39;;;;;;;10.50;4.63;;;7.20;50.00;;;;;;4997617;28;20498;-72
2022/01/25 08:15:08;;;;;;;13.15;4.03;;;7.20;50.00;;;;;;4998439;28;20444;-73
2022/01/25 08:17:37;;;;;;;7.22;3.83;;;7.20;49.70;;;;;;4997604;28;20026;-80
2022/01/25 08:20:04;;;;;;;9.30;4.10;;;7.20;50.00;;;;;;4997086;28;20073;-71
2022/01/25 08:22:29;;;;;;;6.13;3.30;;;7.10;49.70;;;;;;4998380;28;20110;-75
2022/01/25 08:24:55;;;;;;;6.75;3.33;;;7.00;49.00;;;;;;4998233;28;20046;-74
2022/01/25 08:27:24;;;;;;;11.85;3.40;;;7.00;49.50;;;;;;4998712;28;20022;-76
2022/01/25 08:29:52;;;;;;;7.65;3.53;;;7.00;49.10;;;;;;4998755;28;20100;-76
2022/01/25 08:32:19;;;;;;;8.05;3.60;;;7.10;49.30;;;;;;4996796;28;20026;-77
2022/01/25 08:34:46;;;;;;;9.63;3.70;;;6.90;48.80;;;;;;4997450;28;20038;-80
2022/01/25 08:37:13;;;;;;;10.45;3.63;;;7.00;49.40;;;;;;4997838;28;20044;-77
2022/01/25 08:39:39;;;;;;;7.75;3.17;;;7.00;48.60;;;;;;4997178;28;20325;-71
2022/01/25 08:42:05;;;;;;;7.07;3.28;;;7.10;49.10;;;;;;4996927;28;20034;-69
2022/01/25 08:44:31;;;;;;;8.63;3.30;;;7.10;49.40;;;;;;4997357;28;20022;-75
2022/01/25 08:46:57;;;;;;;7.80;3.25;;;7.20;48.90;;;;;;4997164;28;20080;-76
2022/01/25 08:49:22;;;;;;;14.43;3.28;;;7.20;49.10;;;;;;5004988;28;20050;-68
2022/01/25 08:51:51;;;;;;;6.82;3.85;;;7.30;48.70;;;;;;5003775;28;20170;-68
2022/01/25 08:54:17;;;;;;;8.70;3.00;;;7.30;48.20;;;;;;5033928;28;20034;-68
2022/01/25 08:56:43;;;;;;;8.95;3.50;;;7.20;47.10;;;;;;4996388;28;20059;-72
2022/01/25 08:59:11;;;;;;;7.07;2.92;;;7.30;47.90;;;;;;4996304;28;20025;-69
2022/01/25 09:01:38;;;;;;;7.13;2.80;;;7.20;47.40;;;;;;4996724;28;20128;-69
2022/01/25 09:04:04;;;;;;;7.97;3.08;;;7.30;47.70;;;;;;4994839;28;20498;-70
2022/01/25 09:06:30;;;;;;;10.52;3.13;;;7.30;47.40;;;;;;4996005;28;20109;-69
2022/01/25 09:09:05;;;;;;;6.63;3.00;;;7.30;46.80;;;;;;4996421;28;20022;-72
2022/01/25 09:11:31;;;;;;;6.28;2.72;;;7.40;46.80;;;;;;4996075;28;20033;-67
2022/01/25 09:13:58;;;;;;;7.78;3.45;;;7.40;46.60;;;;;;4996603;28;20030;-70
2022/01/25 09:16:24;;;;;;;7.25;3.05;;;7.50;46.90;;;;;;4997574;28;20392;-70
2022/01/25 09:18:50;;;;;;;9.30;3.10;;;7.60;46.70;;;;;;4998143;28;20035;-73
2022/01/25 09:21:16;;;;;;;11.70;4.10;;;7.70;46.60;;;;;;4997058;28;20065;-71
2022/01/25 09:23:43;;;;;;;6.35;3.13;;;7.80;46.30;;;;;;4996786;28;20030;-73
2022/01/25 09:26:08;;;;;;;6.78;2.92;;;7.90;45.90;;;;;;5011101;28;20110;-70
2022/01/25 09:28:34;;;;;;;7.00;2.40;;;7.90;45.20;;;;;;4996188;28;20035;-75
2022/01/25 09:31:01;;;;;;;7.60;2.90;;;7.90;44.10;;;;;;4996682;28;20037;-69
2022/01/25 09:33:27;;;;;;;5.90;2.72;;;8.00;44.60;;;;;;4996844;28;20471;-71
2022/01/25 09:35:55;;;;;;;7.70;2.70;;;8.10;43.10;;;;;;5028110;28;20499;-69
2022/01/25 09:38:22;;;;;;;5.25;2.20;;;8.10;44.00;;;;;;4995943;28;20094;-72
2022/01/25 09:40:48;;;;;;;5.43;2.58;;;8.20;43.30;;;;;;5026990;28;20096;-70
2022/01/25 09:43:14;;;;;;;11.45;4.05;;;8.30;43.70;;;;;;4995258;28;20022;-69
2022/01/25 09:45:40;;;;;;;6.50;2.58;;;8.30;42.70;;;;;;4996693;28;20060;-69
2022/01/25 09:48:07;;;;;;;7.38;3.08;;;8.40;43.60;;;;;;4997983;28;20023;-73
2022/01/25 09:50:34;;;;;;;6.22;2.90;;;8.50;43.10;;;;;;4995282;28;20499;-69
2022/01/25 09:53:00;;;;;;;7.25;3.25;;;8.50;41.00;;;;;;4995389;28;20102;-70
2022/01/25 09:55:34;;;;;;;11.15;3.00;;;8.60;42.90;;;;;;4996072;28;20085;-72
2022/01/25 09:58:02;;;;;;;10.23;3.65;;;8.70;41.60;;;;;;4995066;28;20044;-69
2022/01/25 10:00:30;;;;;;;6.00;2.47;;;8.80;41.70;;;;;;4994900;28;20034;-71
2022/01/25 10:03:09;;;;;;;7.68;2.70;;;8.90;40.60;;;;;;4995279;28;20049;-72
2022/01/25 10:05:39;;;;;;;7.13;2.50;;;9.00;39.90;;;;;;4995223;28;20042;-68
2022/01/25 10:08:07;;;;;;;6.10;3.00;;;9.00;39.30;;;;;;4994024;28;20065;-73
2022/01/25 10:10:41;;;;;;;7.10;3.00;;;9.10;39.60;;;;;;4996048;28;20550;-70
2022/01/25 10:13:07;;;;;;;;;;;9.20;41.40;;;;;;4993919;28;20105;-69
2022/01/25 10:15:33;;;;;;;5.63;2.50;;;9.30;38.30;;;;;;4994917;28;19905;-70
2022/01/25 10:17:58;;;;;;;4.93;2.45;;;9.40;40.00;;;;;;4992585;28;20081;-68
2022/01/25 10:20:26;;;;;;;6.97;2.63;;;9.40;39.70;;;;;;4995742;28;20082;-69
2022/01/25 10:22:52;;;;;;;8.18;3.22;;;9.50;39.10;;;;;;4996189;28;20022;-69
2022/01/25 10:25:33;;;;;;;5.22;2.70;;;9.50;39.50;;;;;;4995989;28;20118;-69
2022/01/25 10:28:00;;;;;;;5.85;2.70;;;9.60;38.50;;;;;;4995779;28;20081;-69
2022/01/25 10:30:28;;;;;;;6.43;3.53;;;9.60;38.60;;;;;;4995156;28;20027;-70
2022/01/25 10:32:54;;;;;;;7.00;2.70;;;9.60;38.80;;;;;;4994484;28;20034;-70
2022/01/25 10:35:20;;;;;;;5.82;3.03;;;9.70;39.30;;;;;;4993952;28;20455;-72
2022/01/25 10:37:47;;;;;;;6.22;2.53;;;9.70;38.90;;;;;;4994379;28;20050;-70
2022/01/25 10:40:13;;;;;;;5.07;2.50;;;9.80;39.50;;;;;;5025858;28;20120;-68
2022/01/25 10:42:38;;;;;;;8.82;2.90;;;9.90;38.90;;;;;;4994214;28;20483;-69
2022/01/25 10:45:09;;;;;;;5.15;2.53;;;10.00;37.90;;;;;;4994317;28;20478;-69
2022/01/25 10:47:51;;;;;;;7.03;3.13;;;10.00;38.40;;;;;;4994022;28;20376;-69
2022/01/25 10:50:26;;;;;;;6.15;2.65;;;10.10;37.70;;;;;;4992740;28;20349;-70
2022/01/25 10:53:11;;;;;;;7.22;2.42;;;10.20;38.50;;;;;;4993939;28;20491;-69
2022/01/25 10:55:37;;;;;;;6.82;2.67;;;10.20;37.40;;;;;;4993495;28;20077;-70
2022/01/25 10:58:03;;;;;;;8.38;2.60;;;10.30;37.90;;;;;;4993712;28;20440;-71
2022/01/25 11:00:41;;;;;;;8.35;3.00;;;10.40;37.90;;;;;;4993238;28;20420;-69
2022/01/25 11:03:08;;;;;;;6.55;2.92;;;10.50;37.90;;;;;;4994529;28;20102;-69
2022/01/25 11:05:37;;;;;;;7.55;3.20;;;10.50;38.20;;;;;;4993765;28;20033;-69
2022/01/25 11:08:28;;;;;;;7.88;3.53;;;10.70;37.60;;;;;;4993439;28;20187;-68
2022/01/25 11:11:00;;;;;;;6.97;3.10;;;10.70;37.70;;;;;;4993535;28;20022;-68
2022/01/25 11:16:00;;;;;;;7.72;2.85;;;10.80;36.50;;;;;;5024613;28;20038;-70
2022/01/25 11:18:35;;;;;;;4.90;2.40;;;10.90;36.50;;;;;;4993727;28;20481;-72
2022/01/25 11:21:04;;;;;;;6.90;3.10;;;10.90;35.70;;;;;;4993982;28;20089;-70
2022/01/25 11:23:34;;;;;;;9.75;3.60;;;11.00;36.30;;;;;;4993313;28;20041;-70
2022/01/25 11:26:03;;;;;;;7.25;3.25;;;11.00;36.00;;;;;;4993324;28;20030;-70
2022/01/25 11:28:34;;;;;;;7.07;2.90;;;11.10;35.90;;;;;;4993432;28;20034;-68
2022/01/25 11:31:05;;;;;;;6.72;2.97;;;11.20;35.50;;;;;;4993225;28;20420;-69
2022/01/25 11:33:33;;;;;;;5.00;2.40;;;11.20;35.90;;;;;;4993003;28;20105;-70
2022/01/25 11:36:00;;;;;;;4.78;2.47;;;11.20;35.30;;;;;;4993883;28;20377;-72
2022/01/25 11:38:42;;;;;;;6.20;2.50;;;11.20;35.10;;;;;;4993627;28;20041;-77
2022/01/25 11:41:14;;;;;;;9.70;3.40;;;11.20;34.30;;;;;;4992548;28;20065;-71
2022/01/25 11:43:44;;;;;;;6.93;2.70;;;11.30;35.00;;;;;;4994494;28;20436;-70
2022/01/25 11:46:11;;;;;;;7.60;2.70;;;11.40;34.70;;;;;;4993829;28;20384;-74
2022/01/25 11:48:44;;;;;;;6.43;3.20;;;11.40;34.70;;;;;;4994210;28;20041;-72
2022/01/25 11:51:19;;;;;;;7.13;2.67;;;11.50;34.80;;;;;;4993853;28;20089;-77
2022/01/25 11:53:48;;;;;;;7.55;3.08;;;11.60;34.60;;;;;;4993679;28;20081;-71
2022/01/25 11:56:15;;;;;;;6.78;3.15;;;11.70;35.40;;;;;;4994427;28;20027;-69
2022/01/25 11:58:42;;;;;;;5.88;2.55;;;11.70;34.90;;;;;;4993192;28;20037;-69
2022/01/25 12:01:20;;;;;;;6.70;2.90;;;11.80;34.90;;;;;;4992906;28;20035;-71
2022/01/25 12:04:16;;;;;;;5.07;2.60;;;11.80;34.90;;;;;;4993216;28;20083;-69
2022/01/25 12:06:59;;;;;;;5.53;3.00;;;11.90;33.40;;;;;;4995906;28;20118;-70
2022/01/25 12:09:42;;;;;;;5.70;3.23;;;11.90;34.40;;;;;;5022315;28;20117;-70
2022/01/25 12:12:13;;;;;;;6.97;3.00;;;12.00;33.90;;;;;;4994059;28;20257;-80
2022/01/25 12:14:48;;;;;;;9.68;3.28;;;12.10;34.00;;;;;;4993150;28;20031;-71
2022/01/25 12:17:26;;;;;;;7.45;3.38;;;12.10;34.00;;;;;;4993640;28;20435;-72
2022/01/25 12:19:58;;;;;;;6.93;2.63;;;12.20;32.50;;;;;;4993297;28;20030;-76
2022/01/25 12:22:33;;;;;;;5.78;2.80;;;12.20;33.80;;;;;;4993182;28;20104;-76
2022/01/25 12:25:19;;;;;;;6.63;3.20;;;12.20;32.70;;;;;;4993457;28;20026;-71
2022/01/25 12:27:59;;;;;;;5.47;2.70;;;12.20;33.60;;;;;;4996777;28;20038;-70
2022/01/25 12:30:25;;;;;;;5.38;2.80;;;12.30;32.80;;;;;;4996585;28;20197;-69
2022/01/25 12:33:02;;;;;;;7.38;2.78;;;12.30;33.20;;;;;;4994010;28;20058;-72
2022/01/25 12:35:54;;;;;;;6.75;3.05;;;12.40;33.60;;;;;;4993383;28;20468;-69
2022/01/25 12:38:23;;;;;;;6.18;2.65;;;12.40;32.30;;;;;;4993721;28;20049;-70
2022/01/25 12:40:55;;;;;;;6.25;3.10;;;12.40;32.90;;;;;;4995215;28;20056;-69
2022/01/25 12:43:25;;;;;;;9.35;3.17;;;12.40;32.50;;;;;;4997647;28;20035;-80
2022/01/25 12:45:56;;;;;;;20.35;3.45;;;12.50;32.50;;;;;;4996491;28;20072;-70
2022/01/25 12:48:27;;;;;;;10.07;3.78;;;12.60;33.50;;;;;;4996323;28;20037;-71
2022/01/25 12:50:58;;;;;;;7.50;3.60;;;12.70;33.70;;;;;;4997183;28;20054;-73
2022/01/25 12:53:27;;;;;;;7.03;3.17;;;12.70;33.50;;;;;;4996724;28;20046;-69
2022/01/25 12:55:56;;;;;;;9.40;3.05;;;12.70;33.20;;;;;;4996494;28;20030;-71
2022/01/25 12:58:25;;;;;;;9.18;3.65;;;12.80;33.30;;;;;;4996546;28;20052;-75
2022/01/25 13:00:55;;;;;;;9.85;4.53;;;12.80;33.30;;;;;;4998447;28;20018;-80
2022/01/25 13:03:29;;;;;;;8.32;2.97;;;12.80;33.70;;;;;;4998270;28;20027;-82
2022/01/25 13:06:14;;;;;;;6.65;3.80;;;12.90;32.70;;;;;;4998771;28;20037;-71
2022/01/25 13:08:57;;;;;;;6.00;3.30;;;13.00;33.70;;;;;;4997220;28;20109;-82
2022/01/25 13:11:41;;;;;;;7.00;3.00;;;13.00;33.50;;;;;;4996326;28;20057;-72
2022/01/25 13:16:39;;;;;;;8.55;3.60;;;13.10;33.10;;;;;;4996862;28;20042;-72
2022/01/25 13:19:08;;;;;;;8.00;3.28;;;13.10;33.80;;;;;;4997486;28;20023;-72
2022/01/25 13:21:43;;;;;;;9.15;3.30;;;13.20;32.50;;;;;;5029702;28;20070;-69
2022/01/25 13:24:11;;;;;;;6.50;3.75;;;13.20;33.10;;;;;;5002759;28;20046;-69
2022/01/25 13:26:47;;;;;;;8.20;4.00;;;13.30;33.40;;;;;;5002935;28;20030;-70
2022/01/25 13:32:12;;;;;;;6.65;3.25;;;13.30;32.10;;;;;;4997536;28;20185;-75
2022/01/25 13:34:38;;;;;;;6.82;3.00;;;13.30;32.60;;;;;;4995839;28;20030;-71
2022/01/25 13:37:05;;;;;;;6.07;3.42;;;13.30;32.50;;;;;;4995899;28;20034;-71
2022/01/25 13:39:34;;;;;;;8.65;4.30;;;13.30;31.60;;;;;;4995982;28;20076;-72
2022/01/25 13:42:08;;;;;;;7.72;3.25;;;13.40;32.70;;;;;;4995522;28;20384;-69
2022/01/25 13:47:19;;;;;;;8.07;3.25;;;13.40;31.70;;;;;;4995623;28;20085;-72
2022/01/25 13:49:47;;;;;;;6.93;3.20;;;13.40;32.50;;;;;;4995220;28;20533;-72
2022/01/25 13:52:13;;;;;;;8.50;3.10;;;13.40;32.80;;;;;;4994813;28;20113;-72
2022/01/25 13:54:38;;;;;;;8.38;3.47;;;13.40;32.60;;;;;;4995923;28;20061;-75
2022/01/25 13:57:10;;;;;;;7.40;3.38;;;13.40;33.10;;;;;;4995418;28;20454;-71
2022/01/25 13:59:36;;;;;;;8.40;3.00;;;13.30;32.60;;;;;;4995423;28;20018;-72
2022/01/25 14:02:03;;;;;;;4.72;2.80;;;13.30;32.40;;;;;;4995266;28;20113;-73
2022/01/25 14:04:30;;;;;;;5.63;3.00;;;13.10;32.10;;;;;;4995872;28;20395;-69
2022/01/25 14:07:00;;;;;;;8.70;2.90;;;13.00;32.20;;;;;;4995903;28;20037;-70
2022/01/25 14:09:33;;;;;;;6.28;3.13;;;13.10;31.20;;;;;;4996730;28;20049;-75
2022/01/25 14:25:37;;;;;;;5.22;2.78;;;13.30;32.40;;;;;;4994976;28;20026;-70
2022/01/25 14:28:11;;;;;;;7.03;2.90;;;13.30;31.00;;;;;;4995724;28;20367;-74
2022/01/25 14:30:39;;;;;;;7.28;2.75;;;13.30;32.90;;;;;;4995595;28;20108;-72
2022/01/25 14:33:14;;;;;;;8.20;3.35;;;13.10;32.30;;;;;;4994406;28;20127;-73
2022/01/25 14:36:04;;;;;;;5.93;2.70;;;13.00;30.70;;;;;;4994879;28;20035;-73
2022/01/25 14:38:31;;;;;;;4.65;2.40;;;13.00;30.00;;;;;;4995717;28;20514;-69
2022/01/25 14:41:06;;;;;;;12.85;7.25;;;12.90;31.30;;;;;;4995388;28;20042;-71
2022/01/25 14:43:35;;;;;;;5.53;3.00;;;12.90;29.90;;;;;;4996455;28;20105;-70
2022/01/25 14:46:05;;;;;;;5.07;2.55;;;12.90;31.80;;;;;;4995516;28;20084;-70
2022/01/25 14:48:35;;;;;;;9.35;3.67;;;13.00;30.30;;;;;;4994835;28;20037;-73
2022/01/25 14:51:03;;;;;;;7.25;2.80;;;13.00;31.60;;;;;;4994592;28;20054;-76
2022/01/25 14:53:29;;;;;;;7.72;2.67;;;13.00;31.70;;;;;;4995894;28;20571;-73
2022/01/25 14:55:57;;;;;;;9.98;3.08;;;13.00;31.50;;;;;;4995099;28;20113;-79
2022/01/25 14:59:22;;;;;;;6.38;3.15;;;13.00;31.40;;;;;;4994714;28;20053;-75
2022/01/25 15:01:10;;;;;;;8.10;2.80;;;13.00;31.20;;;;;;4994295;28;20045;-74
2022/01/25 15:03:36;;;;;;;6.38;2.83;;;12.90;31.30;;;;;;4994381;28;20033;-80
2022/01/25 15:06:05;;;;;;;7.43;2.75;;;12.90;31.20;;;;;;4994661;28;20031;-77
2022/01/25 15:08:31;;;;;;;5.03;2.17;;;12.90;31.00;;;;;;4995230;28;20116;-80
2022/01/25 15:10:59;;;;;;;6.72;3.00;;;12.90;30.60;;;;;;4995436;28;20030;-77
2022/01/25 15:13:28;;;;;;;8.40;3.00;;;12.80;30.80;;;;;;4995768;28;20091;-79
2022/01/25 15:15:56;;;;;;;8.00;2.88;;;12.80;31.20;;;;;;4995430;28;20491;-76
2022/01/25 15:18:27;;;;;;;7.32;3.83;;;12.70;31.90;;;;;;4995467;28;20030;-82
2022/01/25 15:20:53;;;;;;;7.32;3.22;;;12.70;31.30;;;;;;4995326;28;20033;-71